Time;durP1;ratioP1;P1;durP2;ratioP2;P2;SDS_P1;SDS_P2;PMS_P1;PMS_P2;Temp;Humidity;BMP_temperature;BMP_pressure;BME280_temperature;BME280_humidity;BME280_pressure;Samples;Min_cycle;Max_cycle;Signal;HPM_P1;HPM_P2
2022/03/01 00:02:03;;;;;;;19.50;7.60;;;;;;;-2.97;61.38;102104.23;103134;1288;70128;-76
2022/03/01 00:04:53;;;;;;;19.70;6.70;;;;;;;-2.97;61.15;102100.95;103305;1288;73002;-76
2022/03/01 00:07:43;;;;;;;18.10;7.20;;;;;;;-2.96;61.15;102101.13;103479;1288;59733;-75
2022/03/01 00:10:32;;;;;;;20.50;6.90;;;;;;;-2.97;61.14;102099.38;103315;1287;60470;-75
2022/03/01 00:13:25;;;;;;;19.70;7.40;;;;;;;-2.98;61.28;102093.63;102963;1288;1003175;-77
2022/03/01 00:16:15;;;;;;;20.40;6.90;;;;;;;-2.98;61.16;102090.49;103476;1288;70217;-77
2022/03/01 00:19:04;;;;;;;19.60;7.10;;;;;;;-2.99;61.10;102089.64;103615;1288;75263;-73
2022/03/01 00:21:54;;;;;;;19.00;6.80;;;;;;;-2.99;60.97;102091.01;103641;1287;60309;-74
2022/03/01 00:24:45;;;;;;;21.10;7.40;;;;;;;-3.00;60.87;102086.50;103720;1287;60668;-73
2022/03/01 00:27:34;;;;;;;21.60;6.70;;;;;;;-3.05;60.64;102074.27;103579;1287;1003152;-73
2022/03/01 00:30:24;;;;;;;19.30;6.60;;;;;;;-2.99;60.71;102081.98;104749;1288;70405;-74
2022/03/01 00:33:13;;;;;;;18.50;6.10;;;;;;;-2.99;60.83;102083.54;103013;1288;1002672;-73
2022/03/01 00:36:02;;;;;;;18.90;6.10;;;;;;;-2.99;60.88;102087.71;102982;1288;1003069;-73
2022/03/01 00:38:51;;;;;;;14.70;5.00;;;;;;;-2.99;60.93;102087.89;103663;1288;60614;-73
2022/03/01 00:41:40;;;;;;;17.40;5.90;;;;;;;-2.99;60.63;102083.02;103686;1287;74416;-74
2022/03/01 00:44:30;;;;;;;16.60;6.30;;;;;;;-3.01;61.00;102079.35;103323;1288;67993;-74
2022/03/01 00:47:19;;;;;;;15.20;5.20;;;;;;;-2.98;61.00;102079.90;103398;1290;72912;-74
2022/03/01 00:50:10;;;;;;;15.50;5.90;;;;;;;-2.96;60.88;102077.52;103062;1291;60248;-74
2022/03/01 00:52:59;;;;;;;19.40;6.40;;;;;;;-2.95;61.02;102070.39;103288;1290;59778;-73
2022/03/01 00:55:48;;;;;;;19.00;6.40;;;;;;;-2.94;60.85;102070.23;103190;1291;75804;-74
2022/03/01 00:58:37;;;;;;;17.00;6.10;;;;;;;-2.94;60.75;102069.52;103167;1291;68393;-73
2022/03/01 01:01:28;;;;;;;16.50;5.50;;;;;;;-2.96;61.26;102067.25;102980;1291;73143;-74
2022/03/01 01:04:18;;;;;;;15.70;4.80;;;;;;;-2.95;61.05;102063.96;103241;1291;59877;-75
2022/03/01 01:07:08;;;;;;;17.80;5.80;;;;;;;-2.95;61.36;102063.27;102224;1291;1003910;-75
2022/03/01 01:09:57;;;;;;;17.60;5.30;;;;;;;-2.95;61.09;102063.45;103099;1291;73114;-74
2022/03/01 01:12:47;;;;;;;17.20;6.00;;;;;;;-2.95;61.40;102064.31;102901;1291;69252;-74
2022/03/01 01:15:37;;;;;;;13.30;4.40;;;;;;;-2.95;61.23;102064.65;103017;1291;73458;-75
2022/03/01 01:18:26;;;;;;;14.50;5.10;;;;;;;-2.96;61.47;102055.60;103087;1288;59832;-75
2022/03/01 01:21:16;;;;;;;17.40;6.20;;;;;;;-2.94;61.51;102062.05;103309;1287;60584;-74
2022/03/01 01:24:05;;;;;;;17.60;5.60;;;;;;;-2.92;61.60;102061.22;103153;1287;73458;-75
2022/03/01 01:26:55;;;;;;;17.70;5.80;;;;;;;-2.91;61.52;102055.31;102464;1287;1003351;-73
2022/03/01 01:29:46;;;;;;;15.40;5.60;;;;;;;-2.89;61.27;102054.81;103151;1288;72872;-75
2022/03/01 01:32:36;;;;;;;12.80;4.30;;;;;;;-2.88;61.24;102058.48;102596;1287;1003572;-75
2022/03/01 01:35:28;;;;;;;16.30;5.70;;;;;;;-2.87;61.19;102055.70;102425;1287;1003755;-75
2022/03/01 01:38:17;;;;;;;17.00;5.80;;;;;;;-2.87;61.25;102059.18;103270;1288;73039;-75
2022/03/01 01:41:06;;;;;;;14.50;6.20;;;;;;;-2.89;61.23;102055.50;102413;1288;1003075;-75
2022/03/01 01:43:56;;;;;;;15.60;5.30;;;;;;;-2.90;61.41;102051.85;103161;1287;71415;-74
2022/03/01 01:46:45;;;;;;;14.90;5.30;;;;;;;-2.91;61.69;102056.54;102967;1291;59819;-75
2022/03/01 01:49:35;;;;;;;16.20;5.90;;;;;;;-2.93;61.47;102053.05;102331;1293;1002838;-75
2022/03/01 01:52:26;;;;;;;16.10;6.00;;;;;;;-2.94;61.96;102054.07;103005;1294;75144;-75
2022/03/01 01:55:17;;;;;;;15.90;6.00;;;;;;;-2.95;62.06;102056.50;102820;1293;68594;-75
2022/03/01 01:58:06;;;;;;;14.70;4.50;;;;;;;-2.96;62.14;102056.13;103053;1293;73780;-76
2022/03/01 02:00:55;;;;;;;15.20;5.00;;;;;;;-2.97;62.25;102055.09;102948;1294;59900;-75
2022/03/01 02:03:49;;;;;;;16.30;5.50;;;;;;;-2.98;62.51;102054.38;102982;1291;60769;-75
2022/03/01 02:06:55;;;;;;;15.60;5.80;;;;;;;-2.98;62.44;102055.06;103022;1291;75602;-74
2022/03/01 02:09:46;;;;;;;14.90;5.30;;;;;;;-2.99;62.31;102054.52;103198;1296;68079;-75
2022/03/01 02:12:36;;;;;;;18.50;6.00;;;;;;;-3.00;62.53;102052.78;103157;1291;75194;-76
2022/03/01 02:15:27;;;;;;;16.50;5.10;;;;;;;-3.00;62.55;102051.92;102480;1291;1003069;-75
2022/03/01 02:18:17;;;;;;;13.20;4.90;;;;;;;-3.00;62.62;102051.58;103047;1288;59719;-75
2022/03/01 02:21:07;;;;;;;15.00;5.20;;;;;;;-3.02;62.42;102048.94;102845;1287;1015855;-76
2022/03/01 02:23:58;;;;;;;14.40;5.50;;;;;;;-3.03;62.91;102044.77;103324;1289;67905;-76
2022/03/01 02:26:46;;;;;;;16.00;5.90;;;;;;;-3.06;63.07;102044.74;103365;1288;72404;-76
2022/03/01 02:29:35;;;;;;;14.60;5.70;;;;;;;-3.06;63.31;102046.48;103096;1288;59735;-75
2022/03/01 02:32:26;;;;;;;13.70;4.90;;;;;;;-3.08;63.03;102046.28;102750;1288;1003864;-76
2022/03/01 02:35:16;;;;;;;15.50;5.50;;;;;;;-3.10;63.48;102046.44;103316;1287;73318;-76
2022/03/01 02:38:06;;;;;;;15.60;5.60;;;;;;;-3.11;63.54;102046.42;103527;1290;66775;-75
2022/03/01 02:40:55;;;;;;;14.40;5.50;;;;;;;-3.12;63.75;102045.55;103323;1287;74077;-75
2022/03/01 02:43:45;;;;;;;16.90;6.10;;;;;;;-3.14;63.69;102046.56;103565;1289;59856;-75
2022/03/01 02:46:35;;;;;;;12.40;5.00;;;;;;;-3.16;64.04;102042.90;103259;1287;60894;-77
2022/03/01 02:49:24;;;;;;;18.00;6.10;;;;;;;-3.18;64.18;102040.62;102488;1288;1002952;-77
2022/03/01 02:52:14;;;;;;;16.90;5.70;;;;;;;-3.19;64.03;102041.99;102572;1288;1003722;-76
2022/03/01 02:55:05;;;;;;;17.00;6.00;;;;;;;-3.21;64.09;102040.59;103302;1290;74685;-74
2022/03/01 02:57:55;;;;;;;17.20;6.30;;;;;;;-3.23;64.10;102036.23;103666;1287;59807;-74
2022/03/01 03:00:48;;;;;;;17.80;6.30;;;;;;;-3.26;64.23;102034.98;103304;1291;61592;-74
2022/03/01 03:03:38;;;;;;;17.80;6.40;;;;;;;-3.28;64.61;102030.45;103321;1288;73990;-74
2022/03/01 03:06:27;;;;;;;15.30;5.90;;;;;;;-3.28;64.34;102031.16;103391;1288;68785;-76
2022/03/01 03:09:21;;;;;;;20.00;6.60;;;;;;;-3.30;64.52;102031.81;103117;1288;73050;-75
2022/03/01 03:12:11;;;;;;;15.20;6.50;;;;;;;-3.28;64.81;102032.69;103351;1290;59777;-76
2022/03/01 03:15:02;;;;;;;18.50;6.10;;;;;;;-3.30;64.68;102030.42;102583;1287;1016618;-76
2022/03/01 03:17:53;;;;;;;19.30;7.40;;;;;;;-3.30;64.88;102030.23;103732;1288;71065;-76
2022/03/01 03:20:43;;;;;;;15.40;6.00;;;;;;;-3.33;65.37;102030.91;103681;1288;68371;-76
2022/03/01 03:23:33;;;;;;;21.10;7.20;;;;;;;-3.34;65.21;102031.41;102391;1291;1003130;-75
2022/03/01 03:26:23;;;;;;;20.20;7.50;;;;;;;-3.38;65.54;102028.41;102706;1287;1003158;-75
2022/03/01 03:29:16;;;;;;;20.30;6.70;;;;;;;-3.41;65.39;102023.00;103296;1290;61693;-77
2022/03/01 03:32:07;;;;;;;22.70;8.10;;;;;;;-3.46;65.73;102021.56;103542;1288;72410;-74
2022/03/01 03:34:56;;;;;;;16.90;6.50;;;;;;;-3.46;65.84;102026.60;103283;1290;66633;-75
2022/03/01 03:37:45;;;;;;;18.50;7.00;;;;;;;-3.48;65.97;102023.97;103320;1287;70741;-75
2022/03/01 03:40:37;;;;;;;20.30;7.80;;;;;;;-3.54;66.02;102013.48;103349;1288;59748;-75
2022/03/01 03:43:26;;;;;;;17.60;6.60;;;;;;;-3.54;66.20;102018.88;103083;1291;60193;-74
2022/03/01 03:46:16;;;;;;;16.40;6.70;;;;;;;-3.56;66.16;102017.80;103350;1287;73080;-74
2022/03/01 03:49:08;;;;;;;17.60;7.00;;;;;;;-3.57;66.36;102019.17;103493;1288;66812;-75
2022/03/01 03:51:59;;;;;;;18.80;7.00;;;;;;;-3.57;66.54;102017.44;103640;1290;76105;-75
2022/03/01 03:54:48;;;;;;;17.60;6.40;;;;;;;-3.57;66.54;102012.41;102548;1288;1003600;-77
2022/03/01 03:57:38;;;;;;;21.80;8.00;;;;;;;-3.55;66.25;102014.52;102676;1288;1003038;-74
2022/03/01 04:00:27;;;;;;;17.80;5.90;;;;;;;-3.52;66.39;102013.67;103492;1287;73670;-76
2022/03/01 04:03:19;;;;;;;17.10;6.20;;;;;;;-3.52;66.42;102004.14;102346;1290;1003542;-75
2022/03/01 04:06:08;;;;;;;18.20;6.70;;;;;;;-3.52;66.34;102006.39;102589;1288;1016355;-74
2022/03/01 04:08:57;;;;;;;18.00;6.40;;;;;;;-3.51;66.34;102006.05;102621;1288;1005104;-75
2022/03/01 04:11:46;;;;;;;17.40;6.30;;;;;;;-3.51;66.51;102008.14;102497;1287;1003748;-75
2022/03/01 04:14:35;;;;;;;16.30;6.00;;;;;;;-3.53;66.73;102003.44;103417;1288;73456;-74
2022/03/01 04:17:25;;;;;;;14.80;5.60;;;;;;;-3.52;66.52;102004.32;103166;1287;68273;-74
2022/03/01 04:20:16;;;;;;;16.10;6.20;;;;;;;-3.51;66.80;102005.70;103437;1287;71354;-74
2022/03/01 04:23:04;;;;;;;17.70;6.20;;;;;;;-3.52;66.66;102002.73;103409;1288;59716;-74
2022/03/01 04:25:54;;;;;;;19.10;6.60;;;;;;;-3.52;66.97;101998.24;103516;1288;59588;-74
2022/03/01 04:28:42;;;;;;;13.90;5.30;;;;;;;-3.52;67.08;101993.37;103351;1288;73349;-74
2022/03/01 04:31:31;;;;;;;20.30;7.20;;;;;;;-3.52;67.12;101989.03;103577;1287;66964;-75
2022/03/01 04:34:20;;;;;;;18.80;7.30;;;;;;;-3.53;67.28;101986.60;103434;1287;71658;-74
2022/03/01 04:37:12;;;;;;;15.60;6.00;;;;;;;-3.55;67.10;101983.98;103605;1287;59713;-74
2022/03/01 04:40:02;;;;;;;17.70;6.50;;;;;;;-3.57;66.99;101977.70;103502;1287;60637;-74
2022/03/01 04:42:51;;;;;;;17.90;6.80;;;;;;;-3.59;67.41;101973.53;103317;1288;73468;-74
2022/03/01 04:45:40;;;;;;;18.10;6.70;;;;;;;-3.61;67.04;101973.16;102961;1287;1003896;-74
2022/03/01 04:48:31;;;;;;;20.50;7.50;;;;;;;-3.62;67.44;101978.16;103416;1287;73037;-74
2022/03/01 04:51:21;;;;;;;17.30;6.10;;;;;;;-3.64;67.36;101975.02;103472;1287;59710;-74
2022/03/01 04:54:10;;;;;;;17.20;7.00;;;;;;;-3.66;67.28;101979.34;103202;1290;59726;-74
2022/03/01 04:56:59;;;;;;;16.40;6.50;;;;;;;-3.67;67.58;101977.42;103458;1288;73430;-74
2022/03/01 04:59:49;;;;;;;15.80;6.20;;;;;;;-3.68;67.79;101974.80;103626;1287;68373;-75
2022/03/01 05:02:44;;;;;;;17.00;7.40;;;;;;;-3.64;67.88;101974.14;103365;1288;71812;-74
2022/03/01 05:05:33;;;;;;;15.60;6.40;;;;;;;-3.65;67.76;101973.09;103380;1287;59663;-75
2022/03/01 05:08:30;;;;;;;16.80;6.70;;;;;;;-3.66;68.40;101973.27;103401;1287;60529;-75
2022/03/01 05:11:22;;;;;;;17.80;6.60;;;;;;;-3.70;67.87;101966.61;102557;1287;1003010;-74
2022/03/01 05:14:11;;;;;;;15.70;6.50;;;;;;;-3.70;68.45;101970.09;103489;1287;67144;-74
2022/03/01 05:17:01;;;;;;;18.30;6.50;;;;;;;-3.70;68.36;101975.29;102696;1287;1016387;-74
2022/03/01 05:20:01;;;;;;;20.90;7.20;;;;;;;-3.71;68.30;101972.86;103543;1287;59678;-77
2022/03/01 05:22:55;;;;;;;16.90;6.60;;;;;;;-3.72;68.35;101971.95;103393;1287;60009;-76
2022/03/01 05:25:48;;;;;;;16.10;6.30;;;;;;;-3.73;68.55;101972.30;104336;1287;71964;-74
2022/03/01 05:28:42;;;;;;;17.50;6.60;;;;;;;-3.73;68.80;101968.66;103615;1288;66628;-74
2022/03/01 05:31:30;;;;;;;15.80;6.40;;;;;;;-3.73;68.78;101970.05;103753;1287;71750;-74
2022/03/01 05:34:21;;;;;;;18.30;6.40;;;;;;;-3.77;68.78;101966.71;103691;1287;1002978;-73
2022/03/01 05:37:10;;;;;;;18.30;7.20;;;;;;;-3.71;68.82;101976.86;103420;1287;1003088;-73
2022/03/01 05:40:07;;;;;;;16.90;6.00;;;;;;;-3.68;68.39;101973.06;103507;1287;74403;-73
2022/03/01 05:43:02;;;;;;;20.90;7.70;;;;;;;-3.66;68.82;101974.13;104321;1287;67234;-74
2022/03/01 05:45:56;;;;;;;23.10;5.90;;;;;;;-3.65;68.54;101974.66;103483;1288;73249;-73
2022/03/01 05:48:49;;;;;;;19.40;7.10;;;;;;;-3.66;68.69;101971.87;103959;1287;59772;-74
2022/03/01 05:51:38;;;;;;;18.40;7.40;;;;;;;-3.67;69.01;101973.25;103778;1288;61454;-74
2022/03/01 05:54:32;;;;;;;18.10;7.30;;;;;;;-3.66;69.02;101973.79;103578;1287;73786;-72
2022/03/01 05:57:29;;;;;;;20.20;7.30;;;;;;;-3.65;69.15;101974.66;103833;1287;68810;-72
2022/03/01 06:00:29;;;;;;;20.20;8.30;;;;;;;-3.63;69.23;101975.20;103244;1287;1003628;-72
2022/03/01 06:03:22;;;;;;;20.80;6.80;;;;;;;-3.63;69.09;101978.52;102737;1287;1003473;-73
2022/03/01 06:06:12;;;;;;;19.70;7.20;;;;;;;-3.61;69.11;101978.02;103325;1290;60645;-73
2022/03/01 06:09:01;;;;;;;22.90;8.70;;;;;;;-3.58;69.23;101977.52;103119;1291;72212;-71
2022/03/01 06:12:16;;;;;;;24.80;8.90;;;;;;;-3.55;69.10;101976.68;103152;1291;66823;-72
2022/03/01 06:15:16;;;;;;;20.50;7.40;;;;;;;-3.49;69.13;101988.04;103307;1290;73137;-71
2022/03/01 06:18:05;;;;;;;25.10;8.90;;;;;;;-3.45;69.02;101986.86;103387;1290;59672;-72
2022/03/01 06:20:55;;;;;;;23.20;8.80;;;;;;;-3.42;69.06;101988.98;102838;1297;61041;-73
2022/03/01 06:23:44;;;;;;;24.20;7.50;;;;;;;-3.37;69.03;101990.59;102867;1293;1003090;-73
2022/03/01 06:26:36;;;;;;;24.80;9.70;;;;;;;-3.32;68.61;101992.38;102786;1294;67025;-73
2022/03/01 06:29:25;;;;;;;22.70;9.20;;;;;;;-3.26;68.23;101995.57;102794;1294;73179;-74
2022/03/01 06:32:22;;;;;;;25.60;10.50;;;;;;;-3.18;67.84;101997.05;103505;1293;59803;-74
2022/03/01 06:35:16;;;;;;;29.80;11.10;;;;;;;-3.13;68.10;101998.99;102855;1296;60865;-75
2022/03/01 06:38:23;;;;;;;24.50;11.10;;;;;;;-3.05;67.75;102000.63;103246;1290;73321;-73
2022/03/01 06:41:13;;;;;;;25.00;11.00;;;;;;;-2.99;67.40;101999.65;103400;1291;67991;-73
2022/03/01 06:44:05;;;;;;;31.90;11.40;;;;;;;-2.93;67.47;102001.10;103021;1293;73318;-74
2022/03/01 06:47:04;;;;;;;26.70;11.10;;;;;;;-2.86;67.29;102001.51;102977;1293;59671;-76
2022/03/01 06:49:55;;;;;;;24.90;11.60;;;;;;;-2.76;67.62;102000.89;103088;1290;61253;-75
2022/03/01 06:52:45;;;;;;;31.60;11.90;;;;;;;-2.65;66.74;102001.86;102336;1288;1003444;-73
2022/03/01 06:55:35;;;;;;;27.30;10.10;;;;;;;-2.54;66.74;102003.16;103519;1287;68286;-76
2022/03/01 06:58:24;;;;;;;28.90;12.00;;;;;;;-2.42;66.14;101995.41;104360;1285;71938;-74
2022/03/01 07:01:12;;;;;;;33.20;12.40;;;;;;;-2.32;65.62;101994.08;103710;1285;59823;-74
2022/03/01 07:04:01;;;;;;;28.70;12.60;;;;;;;-2.22;65.39;101997.80;103637;1285;59640;-75
2022/03/01 07:06:53;;;;;;;33.20;12.20;;;;;;;-2.08;64.99;101993.89;103198;1285;1003388;-75
2022/03/01 07:09:42;;;;;;;33.40;12.80;;;;;;;-1.91;64.56;101993.45;103635;1285;69260;-75
2022/03/01 07:12:31;;;;;;;34.90;11.60;;;;;;;-1.69;63.56;101996.14;103733;1285;73191;-75
2022/03/01 07:15:23;;;;;;;35.50;12.50;;;;;;;-1.28;62.24;101988.61;103525;1288;59826;-71
2022/03/01 07:18:15;;;;;;;39.20;15.00;;;;;;;-0.19;60.09;101983.53;103749;1285;59714;-73
2022/03/01 07:21:08;;;;;;;33.50;13.80;;;;;;;1.66;56.29;101978.00;103921;1285;72003;-73
2022/03/01 07:24:00;;;;;;;30.40;13.60;;;;;;;3.32;51.81;101967.89;103844;1285;67194;-74
2022/03/01 07:26:51;;;;;;;32.90;14.30;;;;;;;4.81;47.44;101961.93;103564;1286;73075;-73
2022/03/01 07:29:40;;;;;;;35.00;15.00;;;;;;;6.03;43.57;101960.04;103692;1285;59764;-75
2022/03/01 07:32:33;;;;;;;33.00;15.80;;;;;;;7.16;42.03;101962.91;103795;1288;60782;-72
2022/03/01 07:35:24;;;;;;;33.00;16.60;;;;;;;8.21;39.16;101954.30;103516;1287;73747;-74
2022/03/01 07:38:14;;;;;;;35.60;16.50;;;;;;;9.11;36.83;101956.83;103715;1287;67085;-75
2022/03/01 07:41:06;;;;;;;40.60;17.70;;;;;;;9.89;35.49;101950.98;103720;1288;73140;-74
2022/03/01 07:43:58;;;;;;;38.70;16.70;;;;;;;10.66;33.63;101952.95;103612;1287;59703;-74
2022/03/01 07:46:47;;;;;;;37.10;17.70;;;;;;;11.16;32.17;101952.83;103445;1287;59675;-74
2022/03/01 07:49:40;;;;;;;33.90;16.80;;;;;;;11.68;30.90;101951.79;103419;1287;72049;-75
2022/03/01 07:52:33;;;;;;;32.00;16.40;;;;;;;11.84;29.21;101937.07;103534;1287;65910;-75
2022/03/01 07:55:22;;;;;;;30.40;14.40;;;;;;;11.88;29.43;101941.48;103394;1287;72881;-75
2022/03/01 07:58:13;;;;;;;32.40;16.50;;;;;;;12.39;28.88;101939.32;104055;1287;59897;-75
2022/03/01 08:01:03;;;;;;;30.10;15.30;;;;;;;12.77;28.05;101942.33;103661;1287;60939;-76
2022/03/01 08:03:55;;;;;;;30.80;14.50;;;;;;;12.94;27.35;101938.14;103403;1288;72264;-75
2022/03/01 08:06:46;;;;;;;27.80;14.70;;;;;;;12.95;27.25;101937.77;103936;1287;66798;-74
2022/03/01 08:09:39;;;;;;;28.80;14.40;;;;;;;13.35;26.86;101935.42;103420;1288;72979;-75
2022/03/01 08:12:28;;;;;;;26.80;13.50;;;;;;;13.65;26.46;101926.86;103552;1287;59612;-73
2022/03/01 08:15:17;;;;;;;21.40;12.60;;;;;;;14.04;25.95;101923.36;103544;1287;60101;-75
2022/03/01 08:18:06;;;;;;;26.00;12.80;;;;;;;14.46;25.20;101920.91;103416;1287;72072;-75
2022/03/01 08:21:00;;;;;;;22.60;11.50;;;;;;;14.17;24.65;101917.17;103549;1287;67929;-75
2022/03/01 08:23:49;;;;;;;22.20;10.90;;;;;;;13.72;24.92;101919.86;103600;1288;72855;-76
2022/03/01 08:26:38;;;;;;;24.60;11.20;;;;;;;13.57;25.04;101920.94;103587;1287;60109;-76
2022/03/01 08:29:29;;;;;;;22.70;10.50;;;;;;;13.55;25.34;101925.12;104206;1288;61055;-76
2022/03/01 08:32:17;;;;;;;21.90;10.30;;;;;;;13.89;24.83;101921.98;103507;1287;72353;-76
2022/03/01 08:35:10;;;;;;;20.50;10.10;;;;;;;14.22;24.65;101919.57;103511;1287;68010;-76
2022/03/01 08:38:04;;;;;;;20.30;10.40;;;;;;;14.66;24.25;101916.96;103473;1287;71988;-76
2022/03/01 08:40:54;;;;;;;18.90;9.30;;;;;;;14.78;23.65;101914.36;103564;1287;59734;-76
2022/03/01 08:43:44;;;;;;;18.70;9.20;;;;;;;15.24;23.61;101914.50;103822;1288;59757;-75
2022/03/01 08:46:33;;;;;;;16.80;8.80;;;;;;;15.73;22.54;101906.35;103658;1287;72393;-74
2022/03/01 08:49:23;;;;;;;17.90;8.20;;;;;;;16.12;22.16;101898.91;103257;1287;66688;-77
2022/03/01 08:52:17;;;;;;;18.50;8.20;;;;;;;15.94;21.68;101894.29;103518;1287;70929;-76
2022/03/01 08:55:10;;;;;;;18.30;8.20;;;;;;;15.77;22.28;101898.00;103480;1287;60078;-76
2022/03/01 08:57:59;;;;;;;18.10;8.40;;;;;;;15.91;21.81;101893.27;103333;1287;59678;-75
2022/03/01 09:00:48;;;;;;;17.00;8.00;;;;;;;15.50;21.82;101894.30;103726;1287;73480;-76
2022/03/01 09:03:40;;;;;;;18.10;8.50;;;;;;;15.19;22.34;101894.48;103627;1286;67995;-76
2022/03/01 09:06:35;;;;;;;22.60;8.30;;;;;;;15.28;22.40;101894.77;103307;1288;72883;-75
2022/03/01 09:09:27;;;;;;;15.90;7.60;;;;;;;15.73;22.30;101888.46;103426;1287;59733;-75
2022/03/01 09:12:16;;;;;;;15.10;7.70;;;;;;;16.09;21.88;101888.27;103573;1287;60600;-75
2022/03/01 09:15:07;;;;;;;18.40;8.00;;;;;;;16.36;21.49;101884.29;103408;1287;73351;-77
2022/03/01 09:17:55;;;;;;;12.90;6.70;;;;;;;16.60;20.88;101881.51;103400;1287;68420;-76
2022/03/01 09:20:45;;;;;;;13.20;6.50;;;;;;;16.82;20.92;101886.12;103554;1287;73695;-76
2022/03/01 09:23:36;;;;;;;14.50;6.50;;;;;;;17.28;20.77;101880.27;103623;1287;59657;-75
2022/03/01 09:26:24;;;;;;;14.30;6.60;;;;;;;17.42;19.85;101876.91;103656;1287;60472;-76
2022/03/01 09:29:14;;;;;;;12.10;5.90;;;;;;;17.14;19.59;101873.70;103847;1287;72433;-76
2022/03/01 09:32:04;;;;;;;13.40;5.50;;;;;;;17.31;19.75;101873.43;103457;1288;66897;-75
2022/03/01 09:34:55;;;;;;;13.70;6.20;;;;;;;17.48;19.63;101869.98;103626;1288;72144;-78
2022/03/01 09:37:45;;;;;;;15.20;6.80;;;;;;;17.94;19.41;101865.23;103683;1287;59691;-76
2022/03/01 09:40:34;;;;;;;13.90;6.00;;;;;;;18.50;19.12;101859.28;103465;1287;60329;-77
2022/03/01 09:43:25;;;;;;;14.70;6.10;;;;;;;18.80;18.81;101852.13;103576;1287;73949;-76
2022/03/01 09:46:13;;;;;;;16.40;5.90;;;;;;;18.70;18.08;101846.48;103628;1288;68578;-76
2022/03/01 09:49:05;;;;;;;15.50;7.00;;;;;;;18.35;18.22;101844.01;103453;1287;71708;-76
2022/03/01 09:51:56;;;;;;;13.70;6.20;;;;;;;18.43;18.31;101844.92;103618;1287;59805;-76
2022/03/01 09:54:46;;;;;;;14.70;6.90;;;;;;;18.21;18.53;101839.61;103846;1287;60822;-76
2022/03/01 09:57:35;;;;;;;15.40;6.70;;;;;;;18.73;18.58;101835.27;103516;1288;72076;-76
2022/03/01 10:00:25;;;;;;;15.40;7.00;;;;;;;19.41;17.90;101828.91;103632;1288;69016;-76
2022/03/01 10:03:20;;;;;;;15.70;7.40;;;;;;;19.73;17.27;101826.65;103341;1290;71931;-76
2022/03/01 10:06:12;;;;;;;13.00;6.50;;;;;;;19.60;16.75;101827.48;103320;1290;59707;-77
2022/03/01 10:09:02;;;;;;;12.90;6.10;;;;;;;19.50;17.19;101826.34;103539;1290;59774;-78
2022/03/01 10:11:52;;;;;;;14.10;6.20;;;;;;;19.42;16.99;101821.65;103222;1291;73403;-77
2022/03/01 10:14:45;;;;;;;14.20;6.60;;;;;;;19.38;16.97;101820.95;103201;1291;68786;-76
2022/03/01 10:17:44;;;;;;;13.80;6.40;;;;;;;18.97;17.21;101822.13;103180;1290;72178;-76
2022/03/01 10:20:32;;;;;;;14.30;6.40;;;;;;;19.25;17.33;101817.59;103148;1291;59754;-75
2022/03/01 10:23:22;;;;;;;15.80;7.40;;;;;;;19.21;16.84;101815.08;103039;1291;59647;-76
2022/03/01 10:26:21;;;;;;;12.20;6.40;;;;;;;19.38;16.78;101807.98;103338;1291;73618;-77
2022/03/01 10:29:10;;;;;;;13.20;6.80;;;;;;;19.73;17.61;101801.65;103082;1293;68655;-76
2022/03/01 10:32:20;;;;;;;12.50;7.10;;;;;;;20.25;16.69;101799.16;103016;1294;73074;-76
2022/03/01 10:35:12;;;;;;;13.10;6.30;;;;;;;20.26;16.18;101793.17;103195;1290;59843;-75
2022/03/01 10:38:07;;;;;;;13.30;6.30;;;;;;;20.03;16.48;101790.66;103561;1290;60031;-76
2022/03/01 10:40:59;;;;;;;12.20;5.60;;;;;;;20.30;16.39;101787.73;103434;1290;72617;-76
2022/03/01 10:43:59;;;;;;;13.30;6.80;;;;;;;20.18;15.87;101784.71;103580;1290;66142;-76
2022/03/01 10:46:50;;;;;;;13.70;6.40;;;;;;;20.34;16.24;101778.48;103401;1290;72231;-76
2022/03/01 10:49:38;;;;;;;14.30;6.90;;;;;;;20.76;16.11;101776.88;103426;1290;60462;-75
2022/03/01 10:52:40;;;;;;;14.50;6.60;;;;;;;20.45;15.68;101773.05;103501;1290;60732;-76
2022/03/01 10:55:35;;;;;;;14.40;6.90;;;;;;;20.26;15.83;101768.95;103551;1291;72061;-74
2022/03/01 10:58:30;;;;;;;13.80;6.70;;;;;;;20.46;15.93;101764.77;103280;1290;68832;-76
2022/03/01 11:01:21;;;;;;;14.90;7.10;;;;;;;20.38;15.68;101765.34;103839;1287;71895;-76
2022/03/01 11:04:13;;;;;;;15.30;6.70;;;;;;;19.54;16.12;101763.72;103847;1287;59764;-76
2022/03/01 11:07:05;;;;;;;16.60;6.90;;;;;;;19.59;16.41;101757.20;103457;1287;59676;-74
2022/03/01 11:09:56;;;;;;;12.20;6.10;;;;;;;19.95;16.26;101750.73;103272;1288;674448;-76
2022/03/01 11:12:53;;;;;;;15.30;7.00;;;;;;;20.12;15.73;101750.25;103665;1287;67214;-77
2022/03/01 11:16:25;;;;;;;15.00;6.90;;;;;;;19.90;16.03;101750.83;103631;1288;72956;-75
2022/03/01 11:19:55;;;;;;;12.10;6.80;;;;;;;20.11;16.27;101742.80;103517;1288;59856;-76
2022/03/01 11:23:03;;;;;;;13.00;6.40;;;;;;;20.27;16.19;101737.00;103779;1288;59674;-75
2022/03/01 11:26:06;;;;;;;17.90;6.90;;;;;;;20.18;16.17;101733.16;104030;1287;73258;-79
2022/03/01 11:28:58;;;;;;;14.60;7.10;;;;;;;19.79;15.88;101737.91;103284;1287;68364;-78
2022/03/01 11:32:09;;;;;;;13.90;6.50;;;;;;;19.66;15.90;101733.33;103386;1287;72891;-78
2022/03/01 11:35:03;;;;;;;13.70;6.90;;;;;;;19.24;16.44;101729.17;103440;1287;59675;-74
2022/03/01 11:38:17;;;;;;;13.20;6.30;;;;;;;18.96;16.55;101731.93;103570;1288;59824;-71
2022/03/01 11:41:20;;;;;;;14.70;6.40;;;;;;;18.90;17.01;101724.55;104338;1287;71985;-74
2022/03/01 11:44:09;;;;;;;14.10;6.60;;;;;;;18.51;17.06;101726.25;103713;1287;68112;-75
2022/03/01 11:47:02;;;;;;;13.90;7.00;;;;;;;18.11;17.73;101725.27;103754;1286;73066;-75
2022/03/01 11:49:52;;;;;;;27.00;7.60;;;;;;;17.71;17.85;101715.77;103613;1287;59811;-72
2022/03/01 11:53:07;;;;;;;16.00;7.20;;;;;;;16.62;18.68;101714.13;103483;1288;61340;-73
2022/03/01 11:55:58;;;;;;;14.60;6.90;;;;;;;16.20;19.15;101714.29;104056;1287;73891;-73
2022/03/01 11:58:51;;;;;;;13.00;6.10;;;;;;;15.52;19.24;101712.50;103825;1287;65580;-74
2022/03/01 12:01:41;;;;;;;16.10;6.90;;;;;;;15.05;20.10;101702.23;103659;1287;73204;-73
2022/03/01 12:04:32;;;;;;;15.00;6.60;;;;;;;14.60;20.52;101708.53;103998;1287;59688;-74
2022/03/01 12:07:27;;;;;;;14.50;5.90;;;;;;;14.27;21.00;101707.52;103827;1287;59652;-74
2022/03/01 12:10:26;;;;;;;14.20;6.50;;;;;;;13.93;21.47;101700.14;103838;1288;72048;-74
2022/03/01 12:13:15;;;;;;;12.70;6.30;;;;;;;13.58;21.99;101690.11;103824;1287;67003;-73
2022/03/01 12:16:05;;;;;;;13.20;5.90;;;;;;;13.37;21.75;101686.96;103587;1290;72223;-72
2022/03/01 12:19:17;;;;;;;17.70;6.10;;;;;;;13.52;22.38;101683.53;103108;1287;59636;-73
2022/03/01 12:22:10;;;;;;;12.00;6.10;;;;;;;13.72;21.86;101679.02;103377;1287;60597;-71
2022/03/01 12:24:58;;;;;;;12.10;5.90;;;;;;;13.53;21.38;101677.38;103632;1287;73358;-72
2022/03/01 12:27:50;;;;;;;15.90;6.60;;;;;;;13.26;22.03;101674.77;103681;1287;66969;-74
2022/03/01 12:30:43;;;;;;;15.30;6.60;;;;;;;13.26;22.15;101675.54;103270;1287;72040;-71
2022/03/01 12:33:32;;;;;;;15.20;6.70;;;;;;;13.20;22.48;101673.02;103395;1287;59860;-73
2022/03/01 12:36:30;;;;;;;17.00;6.60;;;;;;;13.22;23.08;101666.68;103399;1287;60750;-71
2022/03/01 12:39:20;;;;;;;14.90;6.20;;;;;;;13.16;23.40;101662.98;103713;1287;73124;-73
2022/03/01 12:42:09;;;;;;;16.40;6.20;;;;;;;12.82;23.42;101657.92;103590;1287;68375;-73
2022/03/01 12:44:58;;;;;;;16.40;6.90;;;;;;;12.36;23.75;101657.16;103596;1287;73131;-72
2022/03/01 12:47:55;;;;;;;15.70;7.00;;;;;;;11.56;24.89;101658.73;103352;1287;59772;-75
2022/03/01 12:50:54;;;;;;;16.40;6.50;;;;;;;10.81;25.95;101655.05;103669;1287;61114;-74
2022/03/01 12:54:04;;;;;;;16.70;6.90;;;;;;;10.56;26.66;101654.92;103481;1287;72468;-73
2022/03/01 12:56:56;;;;;;;12.20;5.80;;;;;;;10.52;26.87;101657.27;103896;1287;66973;-72
2022/03/01 12:59:48;;;;;;;16.70;6.80;;;;;;;9.96;27.29;101657.95;103532;1287;73906;-74